sensor_id;sensor_type;location;lat;lon;timestamp;temperature;humidity
33105;DHT22;19476;51.448;6.674;2023-04-24T00:01:01;15.80;53.10
33105;DHT22;19476;51.448;6.674;2023-04-24T00:03:27;15.80;53.00
33105;DHT22;19476;51.448;6.674;2023-04-24T00:05:54;15.80;52.80
33105;DHT22;19476;51.448;6.674;2023-04-24T00:08:35;15.80;52.90
33105;DHT22;19476;51.448;6.674;2023-04-24T00:11:01;15.80;52.80
33105;DHT22;19476;51.448;6.674;2023-04-24T00:13:27;15.70;52.60
33105;DHT22;19476;51.448;6.674;2023-04-24T00:15:56;15.70;52.70
33105;DHT22;19476;51.448;6.674;2023-04-24T00:18:26;15.70;52.60
33105;DHT22;19476;51.448;6.674;2023-04-24T00:20:52;15.70;52.60
33105;DHT22;19476;51.448;6.674;2023-04-24T00:23:18;15.70;52.60
33105;DHT22;19476;51.448;6.674;2023-04-24T00:25:44;15.70;52.40
33105;DHT22;19476;51.448;6.674;2023-04-24T00:28:12;15.70;52.10
33105;DHT22;19476;51.448;6.674;2023-04-24T00:30:37;15.70;51.90
33105;DHT22;19476;51.448;6.674;2023-04-24T00:33:03;15.60;51.90
33105;DHT22;19476;51.448;6.674;2023-04-24T00:35:30;15.60;52.00
33105;DHT22;19476;51.448;6.674;2023-04-24T00:37:56;15.60;52.00
33105;DHT22;19476;51.448;6.674;2023-04-24T00:40:28;15.60;52.10
33105;DHT22;19476;51.448;6.674;2023-04-24T00:42:54;15.50;52.10
33105;DHT22;19476;51.448;6.674;2023-04-24T00:45:21;15.50;52.10
33105;DHT22;19476;51.448;6.674;2023-04-24T00:47:48;15.50;52.20
33105;DHT22;19476;51.448;6.674;2023-04-24T00:50:15;15.50;52.20
33105;DHT22;19476;51.448;6.674;2023-04-24T00:52:42;15.50;52.40
33105;DHT22;19476;51.448;6.674;2023-04-24T00:55:08;15.50;52.30
33105;DHT22;19476;51.448;6.674;2023-04-24T00:57:34;15.50;52.30
33105;DHT22;19476;51.448;6.674;2023-04-24T01:00:01;15.40;52.30
33105;DHT22;19476;51.448;6.674;2023-04-24T01:02:27;15.40;52.40
33105;DHT22;19476;51.448;6.674;2023-04-24T01:04:53;15.40;52.50
33105;DHT22;19476;51.448;6.674;2023-04-24T01:07:22;15.30;52.50
33105;DHT22;19476;51.448;6.674;2023-04-24T01:09:49;15.30;52.60
33105;DHT22;19476;51.448;6.674;2023-04-24T01:12:27;15.30;52.70
33105;DHT22;19476;51.448;6.674;2023-04-24T01:14:54;15.20;52.80
33105;DHT22;19476;51.448;6.674;2023-04-24T01:17:22;15.20;52.70
33105;DHT22;19476;51.448;6.674;2023-04-24T01:19:48;15.20;52.90
33105;DHT22;19476;51.448;6.674;2023-04-24T01:22:17;15.10;52.80
33105;DHT22;19476;51.448;6.674;2023-04-24T01:24:43;15.10;53.00
33105;DHT22;19476;51.448;6.674;2023-04-24T01:27:15;15.10;53.10
33105;DHT22;19476;51.448;6.674;2023-04-24T01:29:41;15.10;53.20
33105;DHT22;19476;51.448;6.674;2023-04-24T01:32:07;15.10;53.10
33105;DHT22;19476;51.448;6.674;2023-04-24T01:34:33;15.10;53.20
33105;DHT22;19476;51.448;6.674;2023-04-24T01:37:03;15.10;53.30
33105;DHT22;19476;51.448;6.674;2023-04-24T01:39:29;15.10;53.40
33105;DHT22;19476;51.448;6.674;2023-04-24T01:41:55;15.10;53.20
33105;DHT22;19476;51.448;6.674;2023-04-24T01:44:21;15.10;53.30
33105;DHT22;19476;51.448;6.674;2023-04-24T01:46:48;15.10;53.40
33105;DHT22;19476;51.448;6.674;2023-04-24T01:49:14;15.10;53.30
33105;DHT22;19476;51.448;6.674;2023-04-24T01:51:59;15.10;53.30
33105;DHT22;19476;51.448;6.674;2023-04-24T01:54:25;15.30;53.60
33105;DHT22;19476;51.448;6.674;2023-04-24T01:56:52;15.10;53.30
33105;DHT22;19476;51.448;6.674;2023-04-24T01:59:20;15.10;53.30
33105;DHT22;19476;51.448;6.674;2023-04-24T02:01:54;15.10;53.50
33105;DHT22;19476;51.448;6.674;2023-04-24T02:04:20;15.10;53.40
33105;DHT22;19476;51.448;6.674;2023-04-24T02:06:49;15.10;53.90
33105;DHT22;19476;51.448;6.674;2023-04-24T02:09:16;15.10;53.40
33105;DHT22;19476;51.448;6.674;2023-04-24T02:11:42;15.10;53.40
33105;DHT22;19476;51.448;6.674;2023-04-24T02:14:08;15.10;53.50
33105;DHT22;19476;51.448;6.674;2023-04-24T02:16:34;15.10;53.40
33105;DHT22;19476;51.448;6.674;2023-04-24T02:19:10;15.10;53.50
33105;DHT22;19476;51.448;6.674;2023-04-24T02:21:36;15.10;54.10
33105;DHT22;19476;51.448;6.674;2023-04-24T02:24:02;15.10;53.50
33105;DHT22;19476;51.448;6.674;2023-04-24T02:26:28;15.00;53.60
33105;DHT22;19476;51.448;6.674;2023-04-24T02:28:56;15.00;53.60
33105;DHT22;19476;51.448;6.674;2023-04-24T02:31:22;15.00;53.60
33105;DHT22;19476;51.448;6.674;2023-04-24T02:33:48;15.00;53.60
33105;DHT22;19476;51.448;6.674;2023-04-24T02:36:14;14.90;53.70
33105;DHT22;19476;51.448;6.674;2023-04-24T02:38:43;14.90;53.80
33105;DHT22;19476;51.448;6.674;2023-04-24T02:41:09;14.90;53.80
33105;DHT22;19476;51.448;6.674;2023-04-24T02:43:35;14.90;53.80
33105;DHT22;19476;51.448;6.674;2023-04-24T02:46:01;14.90;54.00
33105;DHT22;19476;51.448;6.674;2023-04-24T02:48:28;14.80;53.90
33105;DHT22;19476;51.448;6.674;2023-04-24T02:50:54;14.80;54.00
33105;DHT22;19476;51.448;6.674;2023-04-24T02:53:20;14.80;54.10
33105;DHT22;19476;51.448;6.674;2023-04-24T02:55:46;14.80;54.10
33105;DHT22;19476;51.448;6.674;2023-04-24T02:58:12;14.80;54.10
33105;DHT22;19476;51.448;6.674;2023-04-24T03:00:41;14.80;54.20
33105;DHT22;19476;51.448;6.674;2023-04-24T03:03:07;14.80;54.10
33105;DHT22;19476;51.448;6.674;2023-04-24T03:05:33;14.90;54.20
33105;DHT22;19476;51.448;6.674;2023-04-24T03:07:59;14.80;54.20
33105;DHT22;19476;51.448;6.674;2023-04-24T03:10:25;14.80;54.20
33105;DHT22;19476;51.448;6.674;2023-04-24T03:12:51;14.80;54.30
33105;DHT22;19476;51.448;6.674;2023-04-24T03:15:17;14.80;54.30
33105;DHT22;19476;51.448;6.674;2023-04-24T03:17:43;14.80;54.40
33105;DHT22;19476;51.448;6.674;2023-04-24T03:20:10;14.80;54.30
33105;DHT22;19476;51.448;6.674;2023-04-24T03:22:36;14.80;54.40
33105;DHT22;19476;51.448;6.674;2023-04-24T03:25:02;14.80;54.40
33105;DHT22;19476;51.448;6.674;2023-04-24T03:27:28;14.80;54.40
33105;DHT22;19476;51.448;6.674;2023-04-24T03:29:54;14.80;54.40
33105;DHT22;19476;51.448;6.674;2023-04-24T03:32:26;14.80;54.50
33105;DHT22;19476;51.448;6.674;2023-04-24T03:34:52;14.80;54.50
33105;DHT22;19476;51.448;6.674;2023-04-24T03:37:18;14.80;54.50
33105;DHT22;19476;51.448;6.674;2023-04-24T03:39:44;14.80;54.50
33105;DHT22;19476;51.448;6.674;2023-04-24T03:42:10;14.80;54.50
33105;DHT22;19476;51.448;6.674;2023-04-24T03:44:36;14.80;54.50
33105;DHT22;19476;51.448;6.674;2023-04-24T03:47:07;14.80;54.40
33105;DHT22;19476;51.448;6.674;2023-04-24T03:49:33;14.80;54.40
33105;DHT22;19476;51.448;6.674;2023-04-24T03:52:02;14.80;54.40
33105;DHT22;19476;51.448;6.674;2023-04-24T03:54:28;14.80;54.50
33105;DHT22;19476;51.448;6.674;2023-04-24T03:56:54;14.80;54.40
33105;DHT22;19476;51.448;6.674;2023-04-24T03:59:20;14.80;54.40
33105;DHT22;19476;51.448;6.674;2023-04-24T04:01:46;14.80;54.40
33105;DHT22;19476;51.448;6.674;2023-04-24T04:04:15;14.80;54.30
33105;DHT22;19476;51.448;6.674;2023-04-24T04:06:41;14.80;54.30
33105;DHT22;19476;51.448;6.674;2023-04-24T04:09:08;14.80;54.30
33105;DHT22;19476;51.448;6.674;2023-04-24T04:11:34;14.80;54.20
33105;DHT22;19476;51.448;6.674;2023-04-24T04:14:01;14.80;54.20
33105;DHT22;19476;51.448;6.674;2023-04-24T04:16:27;14.80;54.30
33105;DHT22;19476;51.448;6.674;2023-04-24T04:18:59;14.80;54.30
33105;DHT22;19476;51.448;6.674;2023-04-24T04:21:25;14.80;54.30
33105;DHT22;19476;51.448;6.674;2023-04-24T04:24:07;14.80;54.30
33105;DHT22;19476;51.448;6.674;2023-04-24T04:26:33;14.80;54.30
33105;DHT22;19476;51.448;6.674;2023-04-24T04:28:59;14.80;54.20
33105;DHT22;19476;51.448;6.674;2023-04-24T04:31:29;14.80;54.30
33105;DHT22;19476;51.448;6.674;2023-04-24T04:33:56;14.80;54.00
33105;DHT22;19476;51.448;6.674;2023-04-24T04:36:22;14.80;54.00
33105;DHT22;19476;51.448;6.674;2023-04-24T04:38:49;14.80;54.00
33105;DHT22;19476;51.448;6.674;2023-04-24T04:41:15;14.80;53.80
33105;DHT22;19476;51.448;6.674;2023-04-24T04:43:46;15.00;54.00
33105;DHT22;19476;51.448;6.674;2023-04-24T04:46:13;14.70;54.00
33105;DHT22;19476;51.448;6.674;2023-04-24T04:48:46;14.70;53.90
33105;DHT22;19476;51.448;6.674;2023-04-24T04:51:33;14.70;53.80
33105;DHT22;19476;51.448;6.674;2023-04-24T04:54:12;14.70;53.90
33105;DHT22;19476;51.448;6.674;2023-04-24T04:56:38;14.70;53.90
33105;DHT22;19476;51.448;6.674;2023-04-24T04:59:04;14.70;53.90
33105;DHT22;19476;51.448;6.674;2023-04-24T05:01:31;14.70;53.80
33105;DHT22;19476;51.448;6.674;2023-04-24T05:04:00;14.70;53.70
33105;DHT22;19476;51.448;6.674;2023-04-24T05:06:46;14.70;53.80
33105;DHT22;19476;51.448;6.674;2023-04-24T05:09:12;14.70;53.90
33105;DHT22;19476;51.448;6.674;2023-04-24T05:11:38;14.70;53.80
33105;DHT22;19476;51.448;6.674;2023-04-24T05:14:04;14.70;53.90
33105;DHT22;19476;51.448;6.674;2023-04-24T05:16:30;14.70;53.80
33105;DHT22;19476;51.448;6.674;2023-04-24T05:18:56;14.70;53.80
33105;DHT22;19476;51.448;6.674;2023-04-24T05:21:22;14.70;53.90
33105;DHT22;19476;51.448;6.674;2023-04-24T05:23:47;14.80;54.00
33105;DHT22;19476;51.448;6.674;2023-04-24T05:26:13;14.80;54.20
33105;DHT22;19476;51.448;6.674;2023-04-24T05:28:40;14.80;54.40
33105;DHT22;19476;51.448;6.674;2023-04-24T05:31:06;14.80;54.50
33105;DHT22;19476;51.448;6.674;2023-04-24T05:33:32;14.80;54.60
33105;DHT22;19476;51.448;6.674;2023-04-24T05:35:57;14.70;54.60
33105;DHT22;19476;51.448;6.674;2023-04-24T05:38:23;14.80;54.80
33105;DHT22;19476;51.448;6.674;2023-04-24T05:40:49;14.70;54.80
33105;DHT22;19476;51.448;6.674;2023-04-24T05:43:15;14.70;54.90
33105;DHT22;19476;51.448;6.674;2023-04-24T05:45:41;14.70;54.90
33105;DHT22;19476;51.448;6.674;2023-04-24T05:48:06;14.70;55.00
33105;DHT22;19476;51.448;6.674;2023-04-24T05:50:32;14.70;55.10
33105;DHT22;19476;51.448;6.674;2023-04-24T05:52:58;14.60;55.10
33105;DHT22;19476;51.448;6.674;2023-04-24T05:55:25;14.70;55.90
33105;DHT22;19476;51.448;6.674;2023-04-24T05:57:51;14.60;55.70
33105;DHT22;19476;51.448;6.674;2023-04-24T06:00:17;14.60;55.70
33105;DHT22;19476;51.448;6.674;2023-04-24T06:02:45;14.60;55.80
33105;DHT22;19476;51.448;6.674;2023-04-24T06:05:11;14.60;56.00
33105;DHT22;19476;51.448;6.674;2023-04-24T06:07:37;14.60;56.40
33105;DHT22;19476;51.448;6.674;2023-04-24T06:10:03;14.60;56.50
33105;DHT22;19476;51.448;6.674;2023-04-24T06:12:28;14.50;56.70
33105;DHT22;19476;51.448;6.674;2023-04-24T06:14:54;14.40;56.70
33105;DHT22;19476;51.448;6.674;2023-04-24T06:17:21;14.50;57.00
33105;DHT22;19476;51.448;6.674;2023-04-24T06:19:47;14.50;56.90
33105;DHT22;19476;51.448;6.674;2023-04-24T06:22:12;14.50;57.00
33105;DHT22;19476;51.448;6.674;2023-04-24T06:24:41;14.50;57.20
33105;DHT22;19476;51.448;6.674;2023-04-24T06:27:07;14.40;57.40
33105;DHT22;19476;51.448;6.674;2023-04-24T06:29:33;14.40;57.40
33105;DHT22;19476;51.448;6.674;2023-04-24T06:31:59;14.40;57.40
33105;DHT22;19476;51.448;6.674;2023-04-24T06:34:25;14.40;57.50
33105;DHT22;19476;51.448;6.674;2023-04-24T06:36:51;14.40;58.00
33105;DHT22;19476;51.448;6.674;2023-04-24T06:39:17;14.40;57.40
33105;DHT22;19476;51.448;6.674;2023-04-24T06:41:42;14.40;57.40
33105;DHT22;19476;51.448;6.674;2023-04-24T06:44:08;14.40;57.40
33105;DHT22;19476;51.448;6.674;2023-04-24T06:46:34;14.40;57.50
33105;DHT22;19476;51.448;6.674;2023-04-24T06:49:00;14.40;57.60
33105;DHT22;19476;51.448;6.674;2023-04-24T06:51:26;14.40;57.70
33105;DHT22;19476;51.448;6.674;2023-04-24T06:53:55;14.40;57.60
33105;DHT22;19476;51.448;6.674;2023-04-24T06:56:22;14.30;57.90
33105;DHT22;19476;51.448;6.674;2023-04-24T06:58:48;14.30;57.90
33105;DHT22;19476;51.448;6.674;2023-04-24T07:01:13;14.30;57.80
33105;DHT22;19476;51.448;6.674;2023-04-24T07:03:39;14.30;57.80
33105;DHT22;19476;51.448;6.674;2023-04-24T07:06:05;14.20;58.00
33105;DHT22;19476;51.448;6.674;2023-04-24T07:08:31;14.20;58.20
33105;DHT22;19476;51.448;6.674;2023-04-24T07:10:58;14.20;58.10
33105;DHT22;19476;51.448;6.674;2023-04-24T07:13:24;14.20;58.00
33105;DHT22;19476;51.448;6.674;2023-04-24T07:15:50;14.10;57.90
33105;DHT22;19476;51.448;6.674;2023-04-24T07:18:18;14.10;57.80
33105;DHT22;19476;51.448;6.674;2023-04-24T07:20:44;14.10;57.80
33105;DHT22;19476;51.448;6.674;2023-04-24T07:23:10;14.10;57.70
33105;DHT22;19476;51.448;6.674;2023-04-24T07:25:36;14.10;57.50
33105;DHT22;19476;51.448;6.674;2023-04-24T07:28:02;14.10;57.60
33105;DHT22;19476;51.448;6.674;2023-04-24T07:30:28;14.00;57.50
33105;DHT22;19476;51.448;6.674;2023-04-24T07:32:54;14.00;57.70
33105;DHT22;19476;51.448;6.674;2023-04-24T07:35:21;13.90;57.80
33105;DHT22;19476;51.448;6.674;2023-04-24T07:37:47;13.90;58.00
33105;DHT22;19476;51.448;6.674;2023-04-24T07:40:13;13.90;58.20
33105;DHT22;19476;51.448;6.674;2023-04-24T07:42:39;13.90;58.10
33105;DHT22;19476;51.448;6.674;2023-04-24T07:45:05;13.90;58.10
33105;DHT22;19476;51.448;6.674;2023-04-24T07:47:32;13.90;58.10
33105;DHT22;19476;51.448;6.674;2023-04-24T07:49:59;13.90;58.10
33105;DHT22;19476;51.448;6.674;2023-04-24T07:52:24;13.80;58.00
33105;DHT22;19476;51.448;6.674;2023-04-24T07:54:50;13.90;58.20
33105;DHT22;19476;51.448;6.674;2023-04-24T07:57:18;13.80;58.40
33105;DHT22;19476;51.448;6.674;2023-04-24T07:59:44;13.80;58.50
33105;DHT22;19476;51.448;6.674;2023-04-24T08:02:09;13.80;58.60
33105;DHT22;19476;51.448;6.674;2023-04-24T08:04:36;13.80;58.70
33105;DHT22;19476;51.448;6.674;2023-04-24T08:07:02;13.80;58.80
33105;DHT22;19476;51.448;6.674;2023-04-24T08:09:27;13.80;58.80
33105;DHT22;19476;51.448;6.674;2023-04-24T08:11:53;13.80;58.80
33105;DHT22;19476;51.448;6.674;2023-04-24T08:14:19;13.80;58.80
33105;DHT22;19476;51.448;6.674;2023-04-24T08:16:45;13.80;59.00
33105;DHT22;19476;51.448;6.674;2023-04-24T08:19:11;13.80;59.30
33105;DHT22;19476;51.448;6.674;2023-04-24T08:21:36;13.70;59.30
33105;DHT22;19476;51.448;6.674;2023-04-24T08:24:02;13.70;59.50
33105;DHT22;19476;51.448;6.674;2023-04-24T08:26:30;13.60;59.80
33105;DHT22;19476;51.448;6.674;2023-04-24T08:28:57;13.60;60.20
33105;DHT22;19476;51.448;6.674;2023-04-24T08:31:23;13.60;61.10
33105;DHT22;19476;51.448;6.674;2023-04-24T08:33:50;13.60;60.80
33105;DHT22;19476;51.448;6.674;2023-04-24T08:36:16;14.00;61.20
33105;DHT22;19476;51.448;6.674;2023-04-24T08:38:42;13.60;61.20
33105;DHT22;19476;51.448;6.674;2023-04-24T08:41:09;13.60;61.30
33105;DHT22;19476;51.448;6.674;2023-04-24T08:43:35;13.60;61.30
33105;DHT22;19476;51.448;6.674;2023-04-24T08:46:04;13.60;61.40
33105;DHT22;19476;51.448;6.674;2023-04-24T08:48:30;13.70;61.50
33105;DHT22;19476;51.448;6.674;2023-04-24T08:50:57;13.70;61.30
33105;DHT22;19476;51.448;6.674;2023-04-24T08:53:24;13.70;61.10
33105;DHT22;19476;51.448;6.674;2023-04-24T08:55:51;13.70;61.20
33105;DHT22;19476;51.448;6.674;2023-04-24T08:58:19;13.80;61.40
33105;DHT22;19476;51.448;6.674;2023-04-24T09:00:45;13.80;61.40
33105;DHT22;19476;51.448;6.674;2023-04-24T09:03:14;13.80;61.40
33105;DHT22;19476;51.448;6.674;2023-04-24T09:05:46;13.80;61.50
33105;DHT22;19476;51.448;6.674;2023-04-24T09:08:18;13.80;61.60
33105;DHT22;19476;51.448;6.674;2023-04-24T09:10:44;13.90;61.70
33105;DHT22;19476;51.448;6.674;2023-04-24T09:13:10;13.90;61.30
33105;DHT22;19476;51.448;6.674;2023-04-24T09:15:37;13.80;61.20
33105;DHT22;19476;51.448;6.674;2023-04-24T09:18:04;13.90;61.00
33105;DHT22;19476;51.448;6.674;2023-04-24T09:20:31;13.80;60.80
33105;DHT22;19476;51.448;6.674;2023-04-24T09:22:57;13.80;60.80
33105;DHT22;19476;51.448;6.674;2023-04-24T09:25:34;13.80;60.50
33105;DHT22;19476;51.448;6.674;2023-04-24T09:28:04;13.80;61.30
33105;DHT22;19476;51.448;6.674;2023-04-24T09:30:32;13.80;60.60
33105;DHT22;19476;51.448;6.674;2023-04-24T09:33:12;13.80;60.50
33105;DHT22;19476;51.448;6.674;2023-04-24T09:35:41;13.80;61.20
33105;DHT22;19476;51.448;6.674;2023-04-24T09:38:08;13.70;60.70
33105;DHT22;19476;51.448;6.674;2023-04-24T09:40:35;13.70;60.60
33105;DHT22;19476;51.448;6.674;2023-04-24T09:43:02;13.80;60.80
33105;DHT22;19476;51.448;6.674;2023-04-24T09:45:35;13.80;60.80
33105;DHT22;19476;51.448;6.674;2023-04-24T09:48:02;13.80;61.00
33105;DHT22;19476;51.448;6.674;2023-04-24T09:50:30;13.80;61.10
33105;DHT22;19476;51.448;6.674;2023-04-24T09:53:06;13.80;61.20
33105;DHT22;19476;51.448;6.674;2023-04-24T09:55:42;13.80;61.70
33105;DHT22;19476;51.448;6.674;2023-04-24T09:58:10;13.90;61.50
33105;DHT22;19476;51.448;6.674;2023-04-24T10:00:36;13.90;61.20
33105;DHT22;19476;51.448;6.674;2023-04-24T10:03:03;13.90;61.10
33105;DHT22;19476;51.448;6.674;2023-04-24T10:05:34;13.80;61.00
33105;DHT22;19476;51.448;6.674;2023-04-24T10:08:03;13.80;60.90
33105;DHT22;19476;51.448;6.674;2023-04-24T10:10:31;13.80;60.80
33105;DHT22;19476;51.448;6.674;2023-04-24T10:12:57;13.80;60.70
33105;DHT22;19476;51.448;6.674;2023-04-24T10:15:24;13.80;60.70
33105;DHT22;19476;51.448;6.674;2023-04-24T10:17:52;13.80;60.50
33105;DHT22;19476;51.448;6.674;2023-04-24T10:20:23;13.80;60.30
33105;DHT22;19476;51.448;6.674;2023-04-24T10:22:52;13.90;60.90
33105;DHT22;19476;51.448;6.674;2023-04-24T10:25:23;13.90;60.80
33105;DHT22;19476;51.448;6.674;2023-04-24T10:27:50;13.90;60.80
33105;DHT22;19476;51.448;6.674;2023-04-24T10:30:17;14.00;60.70
33105;DHT22;19476;51.448;6.674;2023-04-24T10:32:43;14.00;60.40
33105;DHT22;19476;51.448;6.674;2023-04-24T10:35:13;14.10;60.20
33105;DHT22;19476;51.448;6.674;2023-04-24T10:37:59;14.00;60.20
33105;DHT22;19476;51.448;6.674;2023-04-24T10:40:30;14.10;60.10
33105;DHT22;19476;51.448;6.674;2023-04-24T10:42:56;14.10;60.00
33105;DHT22;19476;51.448;6.674;2023-04-24T10:45:25;14.10;59.70
33105;DHT22;19476;51.448;6.674;2023-04-24T10:48:05;14.10;59.80
33105;DHT22;19476;51.448;6.674;2023-04-24T10:50:43;14.10;59.70
33105;DHT22;19476;51.448;6.674;2023-04-24T10:53:19;14.20;59.80
33105;DHT22;19476;51.448;6.674;2023-04-24T10:55:51;14.20;60.10
33105;DHT22;19476;51.448;6.674;2023-04-24T10:58:22;14.30;60.10
33105;DHT22;19476;51.448;6.674;2023-04-24T11:00:57;14.30;59.70
33105;DHT22;19476;51.448;6.674;2023-04-24T11:03:25;14.30;59.70
33105;DHT22;19476;51.448;6.674;2023-04-24T11:05:58;14.40;59.50
33105;DHT22;19476;51.448;6.674;2023-04-24T11:08:25;14.40;59.10
33105;DHT22;19476;51.448;6.674;2023-04-24T11:10:56;14.50;58.40
33105;DHT22;19476;51.448;6.674;2023-04-24T11:14:00;14.50;58.80
33105;DHT22;19476;51.448;6.674;2023-04-24T11:16:14;14.50;58.20
33105;DHT22;19476;51.448;6.674;2023-04-24T11:18:42;14.50;58.10
33105;DHT22;19476;51.448;6.674;2023-04-24T11:21:17;14.50;57.50
33105;DHT22;19476;51.448;6.674;2023-04-24T11:23:43;14.50;55.70
33105;DHT22;19476;51.448;6.674;2023-04-24T11:26:17;14.50;55.60
33105;DHT22;19476;51.448;6.674;2023-04-24T11:28:47;14.40;56.00
33105;DHT22;19476;51.448;6.674;2023-04-24T11:31:41;14.40;55.20
33105;DHT22;19476;51.448;6.674;2023-04-24T11:34:13;14.40;55.00
33105;DHT22;19476;51.448;6.674;2023-04-24T11:36:44;14.40;55.00
33105;DHT22;19476;51.448;6.674;2023-04-24T11:39:10;14.40;55.60
33105;DHT22;19476;51.448;6.674;2023-04-24T11:41:37;14.40;55.70
33105;DHT22;19476;51.448;6.674;2023-04-24T11:44:05;14.50;55.80
33105;DHT22;19476;51.448;6.674;2023-04-24T11:46:31;14.50;55.60
33105;DHT22;19476;51.448;6.674;2023-04-24T11:48:58;14.50;55.70
33105;DHT22;19476;51.448;6.674;2023-04-24T11:51:25;14.60;55.80
33105;DHT22;19476;51.448;6.674;2023-04-24T11:53:55;14.70;55.60
33105;DHT22;19476;51.448;6.674;2023-04-24T11:56:22;14.70;55.40
33105;DHT22;19476;51.448;6.674;2023-04-24T11:58:48;14.80;55.10
33105;DHT22;19476;51.448;6.674;2023-04-24T12:01:14;14.80;55.10
33105;DHT22;19476;51.448;6.674;2023-04-24T12:03:40;14.90;54.80
33105;DHT22;19476;51.448;6.674;2023-04-24T12:06:11;15.00;54.50
33105;DHT22;19476;51.448;6.674;2023-04-24T12:08:37;15.00;53.80
33105;DHT22;19476;51.448;6.674;2023-04-24T12:11:05;15.10;53.30
33105;DHT22;19476;51.448;6.674;2023-04-24T12:13:33;15.10;52.40
33105;DHT22;19476;51.448;6.674;2023-04-24T12:16:00;15.10;52.20
33105;DHT22;19476;51.448;6.674;2023-04-24T12:18:27;15.10;52.00
33105;DHT22;19476;51.448;6.674;2023-04-24T12:20:53;15.10;51.60
33105;DHT22;19476;51.448;6.674;2023-04-24T12:23:34;15.00;51.50
33105;DHT22;19476;51.448;6.674;2023-04-24T12:26:03;15.00;50.60
33105;DHT22;19476;51.448;6.674;2023-04-24T12:28:35;15.00;51.10
33105;DHT22;19476;51.448;6.674;2023-04-24T12:31:01;15.00;50.80
33105;DHT22;19476;51.448;6.674;2023-04-24T12:33:28;15.00;51.10
33105;DHT22;19476;51.448;6.674;2023-04-24T12:35:57;15.00;50.90
33105;DHT22;19476;51.448;6.674;2023-04-24T12:38:28;15.10;49.60
33105;DHT22;19476;51.448;6.674;2023-04-24T12:41:03;15.10;50.20
33105;DHT22;19476;51.448;6.674;2023-04-24T12:43:30;15.10;50.00
33105;DHT22;19476;51.448;6.674;2023-04-24T12:45:56;15.00;50.20
33105;DHT22;19476;51.448;6.674;2023-04-24T12:48:22;15.10;50.50
33105;DHT22;19476;51.448;6.674;2023-04-24T12:50:48;15.10;49.80
33105;DHT22;19476;51.448;6.674;2023-04-24T12:53:14;15.20;49.60
33105;DHT22;19476;51.448;6.674;2023-04-24T12:55:41;15.10;49.50
33105;DHT22;19476;51.448;6.674;2023-04-24T12:58:07;15.20;48.70
33105;DHT22;19476;51.448;6.674;2023-04-24T13:00:33;15.20;48.50
33105;DHT22;19476;51.448;6.674;2023-04-24T13:02:59;15.10;48.20
33105;DHT22;19476;51.448;6.674;2023-04-24T13:05:24;15.10;48.50
33105;DHT22;19476;51.448;6.674;2023-04-24T13:07:50;15.10;48.80
33105;DHT22;19476;51.448;6.674;2023-04-24T13:10:16;15.10;49.10
33105;DHT22;19476;51.448;6.674;2023-04-24T13:12:43;15.10;48.80
33105;DHT22;19476;51.448;6.674;2023-04-24T13:15:11;15.10;48.60
33105;DHT22;19476;51.448;6.674;2023-04-24T13:17:37;15.00;48.90
33105;DHT22;19476;51.448;6.674;2023-04-24T13:20:04;15.00;48.70
33105;DHT22;19476;51.448;6.674;2023-04-24T13:22:30;15.00;49.00
33105;DHT22;19476;51.448;6.674;2023-04-24T13:24:59;15.00;49.00
33105;DHT22;19476;51.448;6.674;2023-04-24T13:27:25;15.00;49.20
33105;DHT22;19476;51.448;6.674;2023-04-24T13:29:50;15.00;49.40
33105;DHT22;19476;51.448;6.674;2023-04-24T13:32:17;15.00;49.10
33105;DHT22;19476;51.448;6.674;2023-04-24T13:34:43;15.00;49.30
33105;DHT22;19476;51.448;6.674;2023-04-24T13:37:09;15.00;49.50
33105;DHT22;19476;51.448;6.674;2023-04-24T13:39:34;15.10;49.50
33105;DHT22;19476;51.448;6.674;2023-04-24T13:42:01;15.10;49.40
33105;DHT22;19476;51.448;6.674;2023-04-24T13:44:27;15.10;49.20
33105;DHT22;19476;51.448;6.674;2023-04-24T13:46:54;15.10;49.00
33105;DHT22;19476;51.448;6.674;2023-04-24T13:49:22;15.20;48.80
33105;DHT22;19476;51.448;6.674;2023-04-24T13:51:50;15.10;49.00
33105;DHT22;19476;51.448;6.674;2023-04-24T13:54:16;15.20;49.20
33105;DHT22;19476;51.448;6.674;2023-04-24T13:56:42;15.30;48.90
33105;DHT22;19476;51.448;6.674;2023-04-24T13:59:09;15.30;49.00
33105;DHT22;19476;51.448;6.674;2023-04-24T14:01:35;15.40;49.20
33105;DHT22;19476;51.448;6.674;2023-04-24T14:04:01;15.50;48.40
33105;DHT22;19476;51.448;6.674;2023-04-24T14:06:30;15.50;48.30
33105;DHT22;19476;51.448;6.674;2023-04-24T14:08:56;15.60;48.00
33105;DHT22;19476;51.448;6.674;2023-04-24T14:11:22;15.60;47.70
33105;DHT22;19476;51.448;6.674;2023-04-24T14:13:48;15.60;47.60
33105;DHT22;19476;51.448;6.674;2023-04-24T14:16:14;15.60;47.20
33105;DHT22;19476;51.448;6.674;2023-04-24T14:18:40;15.70;47.30
33105;DHT22;19476;51.448;6.674;2023-04-24T14:21:06;15.70;47.20
33105;DHT22;19476;51.448;6.674;2023-04-24T14:24:04;15.70;46.60
33105;DHT22;19476;51.448;6.674;2023-04-24T14:26:30;15.70;45.40
33105;DHT22;19476;51.448;6.674;2023-04-24T14:28:55;15.80;46.30
33105;DHT22;19476;51.448;6.674;2023-04-24T14:31:24;15.60;46.70
33105;DHT22;19476;51.448;6.674;2023-04-24T14:33:50;15.60;47.20
33105;DHT22;19476;51.448;6.674;2023-04-24T14:36:16;15.50;47.60
33105;DHT22;19476;51.448;6.674;2023-04-24T14:38:42;15.50;48.30
33105;DHT22;19476;51.448;6.674;2023-04-24T14:41:08;15.40;49.00
33105;DHT22;19476;51.448;6.674;2023-04-24T14:43:36;15.40;49.30
33105;DHT22;19476;51.448;6.674;2023-04-24T14:46:02;15.30;49.70
33105;DHT22;19476;51.448;6.674;2023-04-24T14:48:28;15.30;50.20
33105;DHT22;19476;51.448;6.674;2023-04-24T14:50:54;15.40;50.50
33105;DHT22;19476;51.448;6.674;2023-04-24T14:53:20;15.30;50.60
33105;DHT22;19476;51.448;6.674;2023-04-24T14:55:46;15.40;50.90
33105;DHT22;19476;51.448;6.674;2023-04-24T14:58:12;15.40;50.90
33105;DHT22;19476;51.448;6.674;2023-04-24T15:00:38;15.40;50.80
33105;DHT22;19476;51.448;6.674;2023-04-24T15:03:04;15.40;50.80
33105;DHT22;19476;51.448;6.674;2023-04-24T15:05:29;15.50;50.90
33105;DHT22;19476;51.448;6.674;2023-04-24T15:07:55;15.50;50.80
33105;DHT22;19476;51.448;6.674;2023-04-24T15:10:21;15.60;50.70
33105;DHT22;19476;51.448;6.674;2023-04-24T15:12:49;15.60;50.50
33105;DHT22;19476;51.448;6.674;2023-04-24T15:15:15;15.60;50.20
33105;DHT22;19476;51.448;6.674;2023-04-24T15:17:41;15.70;49.90
33105;DHT22;19476;51.448;6.674;2023-04-24T15:20:07;15.80;49.90
33105;DHT22;19476;51.448;6.674;2023-04-24T15:22:33;15.80;49.90
33105;DHT22;19476;51.448;6.674;2023-04-24T15:24:59;15.90;49.60
33105;DHT22;19476;51.448;6.674;2023-04-24T15:27:27;16.00;49.30
33105;DHT22;19476;51.448;6.674;2023-04-24T15:30:04;16.10;48.40
33105;DHT22;19476;51.448;6.674;2023-04-24T15:32:30;16.20;48.50